Hobart, OK

6:33 AM CDT on July 30, 2014 (GMT -0500)
Hobart Municipal (KHBR) Elev 1565 ft | 34.99 °N, 99.05 °W | Change Station

Current weather conditions updated 40 minutes ago

Rain
Rain Mist
68 °F
Feels Like 68 °F
N
7
Wind Variable Wind from SSE

Today is forecast to be Much Warmer than yesterday. Thunderstorms.

Today
High -- | Low -- °F
--% Chance of Precip.
Yesterday
High -- | Low -- °F
Precip. -- in
6:44 AM 8:40 PM
Waxing Crescent, 11% visible
Pressure 30.03 in
Visibility 3.0 miles
Clouds Few 2100 ft
Mostly Cloudy 3500 ft
Overcast 4900 ft
Dew Point 66 °F
Humidity 93%
Rainfall 0.39 in
Snow Depth Not available.
UV 0 out of 12
Pollen 3.00 out of 12
Air Quality Not available.
Flu Activity Not available.
METAR KHBR 301053Z AUTO 15006KT 3SM RA BR FEW021 BKN035 OVC049 20/19 A3007 RMK AO2 SLP169 P0019 T02000189 $

More Conditions Fewer Conditions

Pressure 30.03 in
Visibility 3.0 miles
Clouds Few 2100 ft
Mostly Cloudy 3500 ft
Overcast 4900 ft
Dew Point 66 °F
Humidity 93%
Rainfall 0.39 in
Snow Depth Not available.
UV 0 out of 12
Pollen 3.00 out of 12
Air Quality Not available.
Flu Activity Not available.
METAR KHBR 301053Z AUTO 15006KT 3SM RA BR FEW021 BKN035 OVC049 20/19 A3007 RMK AO2 SLP169 P0019 T02000189 $

More Conditions Fewer Conditions

10-Day Weather Forecast

Almanac

Astronomy

Jul. 30, 2014 Rise Set
Actual Time 6:44 AM CDT 8:40 PM CDT
Civil Twilight 6:16 AM CDT 9:08 PM CDT
Nautical Twilight 5:42 AM CDT 9:42 PM CDT
Astronomical Twilight 5:06 AM CDT 10:18 PM CDT
Moon 10:07 AM CDT 10:35 PM CDT
Length of Visible Light 14h 52m
Length of Day
13h 56m
Tomorrow will be 1m 36s shorter.
Waxing Crescent, 11% of the Moon is Illuminated
Today
Waxing Crescent
Aug 3
First Quarter
Aug 10
Full
Aug 17
Last Quarter
Aug 25
New

Today's Extremes

State Highs State Lows

Community

WunderPhotos

Upload Photos

1,739,039 photos uploaded!

Nearby

Snow Depth

Station Depth Elevation
No new snow has been reported.

Earthquake Activity

City Distance Mag. Time & Date
Helena, Oklahoma 121 miles 3.3 11:56 PM CDT
2014-07-24
Guthrie, Oklahoma 103 miles 2.7 5:27 AM CDT
2014-07-24
Langston, Oklahoma 116 miles 3.2 9:03 AM CDT
2014-07-23
Minimum magnitude displayed is 2.5.

Coastal Water Temperatures

Place Temperature
No Stations Reporting

Nearby Weather Stations

Station Location Temp. Dew Point Humidity Wind Precip. Elev Updated Type
Petzold Consulting, Lone Wolf, OK 68.2 °F 68 °F 99% SE  at  3.6 mph 0.14 in / hr 1588 ft 6:32 AM CDT Rapid Fire

Show More Stations Show Fewer Stations